createdAt,value
2019-04-25T00:00:38.030Z,944.68
2019-04-25T00:01:38.289Z,944.78
2019-04-25T00:02:38.241Z,944.71
2019-04-25T00:03:38.347Z,944.68
2019-04-25T00:04:38.706Z,944.66
2019-04-25T00:05:38.719Z,944.66
2019-04-25T00:06:38.592Z,944.62
2019-04-25T00:07:37.670Z,944.64
2019-04-25T00:08:37.553Z,944.67
2019-04-25T00:09:37.597Z,944.66
2019-04-25T00:10:37.990Z,944.65
2019-04-25T00:11:37.829Z,944.63
2019-04-25T00:12:37.959Z,944.63
2019-04-25T00:13:38.033Z,944.63
2019-04-25T00:14:38.065Z,944.61
2019-04-25T00:15:38.298Z,944.57
2019-04-25T00:16:37.469Z,944.63
2019-04-25T00:17:38.502Z,944.65
2019-04-25T00:18:38.528Z,944.60
2019-04-25T00:19:38.653Z,944.63
2019-04-25T00:20:38.810Z,944.57
2019-04-25T00:21:38.222Z,944.51
2019-04-25T00:22:58.456Z,944.50
2019-04-25T00:23:37.400Z,944.48
2019-04-25T00:24:37.431Z,944.55
2019-04-25T00:25:37.358Z,944.49
2019-04-25T00:26:37.382Z,944.52
2019-04-25T00:27:37.373Z,944.46
2019-04-25T00:28:37.322Z,944.46
2019-04-25T00:29:37.349Z,944.56
2019-04-25T00:30:37.324Z,944.59
2019-04-25T00:31:37.313Z,944.61
2019-04-25T00:32:37.354Z,944.62
2019-04-25T00:33:37.302Z,944.60
2019-04-25T00:34:37.259Z,944.58
2019-04-25T00:35:37.318Z,944.60
2019-04-25T00:36:39.105Z,944.58
2019-04-25T00:37:37.479Z,944.60
2019-04-25T00:38:37.200Z,944.62
2019-04-25T00:39:37.211Z,944.68
2019-04-25T00:40:37.191Z,944.71
2019-04-25T00:41:37.194Z,944.71
2019-04-25T00:42:37.179Z,944.75
2019-04-25T00:43:37.200Z,944.75
2019-04-25T00:44:37.133Z,944.72
2019-04-25T00:45:37.125Z,944.73
2019-04-25T00:46:37.975Z,944.71
2019-04-25T00:47:37.105Z,944.69
2019-04-25T00:48:37.076Z,944.69
2019-04-25T00:49:38.481Z,944.75
2019-04-25T00:50:37.069Z,944.71
2019-04-25T00:51:37.074Z,944.83
2019-04-25T00:52:37.065Z,944.86
2019-04-25T00:53:37.047Z,944.88
2019-04-25T00:54:37.033Z,944.88
2019-04-25T00:55:37.047Z,944.94
2019-04-25T00:56:36.994Z,944.93
2019-04-25T00:57:37.009Z,944.94
2019-04-25T00:58:36.974Z,944.92
2019-04-25T00:59:36.970Z,944.93
2019-04-25T01:00:36.985Z,944.88
2019-04-25T01:01:36.935Z,944.91
2019-04-25T01:02:36.929Z,945.01
2019-04-25T01:03:36.931Z,945.02
2019-04-25T01:04:36.936Z,945.05
2019-04-25T01:05:36.907Z,945.05
2019-04-25T01:06:36.894Z,945.03
2019-04-25T01:07:37.880Z,945.03
2019-04-25T01:08:38.474Z,945.04
2019-04-25T01:09:36.880Z,945.05
2019-04-25T01:10:36.879Z,945.00
2019-04-25T01:11:38.383Z,944.92
2019-04-25T01:12:36.814Z,944.93
2019-04-25T01:13:36.815Z,944.88
2019-04-25T01:14:36.801Z,944.89
2019-04-25T01:15:36.815Z,944.91
2019-04-25T01:16:36.805Z,944.94
2019-04-25T01:17:36.757Z,944.96
2019-04-25T01:18:37.492Z,945.02
2019-04-25T01:19:36.738Z,945.04
2019-04-25T01:20:36.749Z,945.04
2019-04-25T01:21:36.754Z,945.07
2019-04-25T01:22:36.781Z,945.04
2019-04-25T01:23:36.683Z,945.09
2019-04-25T01:24:36.670Z,945.07
2019-04-25T01:25:41.098Z,945.03
2019-04-25T01:26:38.451Z,945.07
2019-04-25T01:27:36.671Z,945.08
2019-04-25T01:28:36.651Z,945.11
2019-04-25T01:29:36.619Z,945.11
2019-04-25T01:30:36.662Z,945.09
2019-04-25T01:31:36.613Z,945.11
2019-04-25T01:32:36.576Z,945.09
2019-04-25T01:33:37.455Z,945.06
2019-04-25T01:34:37.443Z,945.02
2019-04-25T01:35:36.537Z,945.01
2019-04-25T01:36:36.541Z,945.05
2019-04-25T01:37:36.578Z,945.14
2019-04-25T01:38:36.531Z,945.08
2019-04-25T01:39:36.508Z,945.10
2019-04-25T01:40:36.501Z,945.14
2019-04-25T01:41:36.483Z,945.20
2019-04-25T01:42:36.456Z,945.23
2019-04-25T01:43:36.477Z,945.26
2019-04-25T01:44:36.459Z,945.23
2019-04-25T01:45:36.460Z,945.27
2019-04-25T01:46:36.423Z,945.32
2019-04-25T01:47:36.407Z,945.35
2019-04-25T01:48:36.429Z,945.35
2019-04-25T01:49:36.411Z,945.45
2019-04-25T01:50:36.390Z,945.42
2019-04-25T01:51:36.357Z,945.45
2019-04-25T01:52:36.354Z,945.53
2019-04-25T01:53:36.346Z,945.51
2019-04-25T01:54:36.337Z,945.56
2019-04-25T01:55:37.327Z,945.49
2019-04-25T01:56:36.341Z,945.46
2019-04-25T01:57:36.304Z,945.52
2019-04-25T01:58:36.280Z,945.57
2019-04-25T01:59:36.299Z,945.54
2019-04-25T02:00:36.255Z,945.54
2019-04-25T02:01:36.299Z,945.59
2019-04-25T02:02:36.265Z,945.63
2019-04-25T02:03:36.235Z,945.62
2019-04-25T02:04:36.237Z,945.66
2019-04-25T02:05:36.225Z,945.66
2019-04-25T02:06:36.204Z,945.65
2019-04-25T02:07:36.273Z,945.64
2019-04-25T02:08:36.170Z,945.65
2019-04-25T02:09:36.158Z,945.62
2019-04-25T02:10:36.136Z,945.58
2019-04-25T02:11:36.166Z,945.60
2019-04-25T02:12:37.123Z,945.61
2019-04-25T02:13:36.119Z,945.64
2019-04-25T02:14:36.103Z,945.58
2019-04-25T02:15:36.088Z,945.61
2019-04-25T02:16:36.466Z,945.64
2019-04-25T02:17:36.079Z,945.67
2019-04-25T02:18:36.055Z,945.68
2019-04-25T02:19:36.091Z,945.70
2019-04-25T02:20:36.032Z,945.73
2019-04-25T02:21:36.023Z,945.67
2019-04-25T02:22:41.499Z,945.76
2019-04-25T02:23:36.950Z,945.74
2019-04-25T02:24:35.981Z,945.70
2019-04-25T02:25:36.494Z,945.68
2019-04-25T02:26:35.996Z,945.70
2019-04-25T02:27:36.018Z,945.66
2019-04-25T02:28:35.948Z,945.67
2019-04-25T02:29:35.954Z,945.73
2019-04-25T02:30:35.951Z,945.75
2019-04-25T02:31:36.483Z,945.71
2019-04-25T02:32:37.084Z,945.71
2019-04-25T02:33:36.534Z,945.66
2019-04-25T02:34:36.022Z,945.63
2019-04-25T02:35:35.931Z,945.67
2019-04-25T02:36:35.986Z,945.63
2019-04-25T02:37:36.912Z,945.62
2019-04-25T02:38:35.846Z,945.61
2019-04-25T02:39:37.462Z,945.66
2019-04-25T02:40:35.850Z,945.70
2019-04-25T02:41:35.826Z,945.69
2019-04-25T02:42:35.793Z,945.70
2019-04-25T02:43:35.795Z,945.74
2019-04-25T02:44:35.793Z,945.70
2019-04-25T02:45:35.786Z,945.77
2019-04-25T02:46:37.265Z,945.77
2019-04-25T02:47:35.729Z,945.76
2019-04-25T02:48:35.727Z,945.80
2019-04-25T02:49:38.826Z,945.84
2019-04-25T02:50:35.705Z,945.85
2019-04-25T02:51:35.731Z,945.82
2019-04-25T02:53:53.724Z,945.82
2019-04-25T02:54:47.965Z,945.86
2019-04-25T02:55:47.920Z,945.89
2019-04-25T02:56:48.112Z,945.92
2019-04-25T02:57:47.846Z,945.92
2019-04-25T02:58:47.804Z,945.92
2019-04-25T02:59:47.815Z,945.95
2019-04-25T03:00:57.325Z,945.96
2019-04-25T03:01:47.764Z,945.91
2019-04-25T03:02:47.793Z,945.94
2019-04-25T03:03:47.780Z,945.92
2019-04-25T03:04:47.867Z,945.91
2019-04-25T03:05:48.010Z,945.89
2019-04-25T03:06:47.719Z,945.81
2019-04-25T03:07:47.693Z,945.81
2019-04-25T03:08:47.708Z,945.86
2019-04-25T03:09:47.702Z,945.93
2019-04-25T03:10:47.645Z,945.94
2019-04-25T03:11:48.631Z,945.92
2019-04-25T03:12:47.657Z,945.95
2019-04-25T03:13:47.626Z,946.01
2019-04-25T03:14:47.638Z,946.03
2019-04-25T03:15:47.601Z,945.99
2019-04-25T03:16:47.620Z,946.00
2019-04-25T03:17:47.584Z,946.02
2019-04-25T03:18:47.562Z,945.95
2019-04-25T03:19:47.607Z,946.00
2019-04-25T03:20:47.558Z,946.02
2019-04-25T03:21:47.555Z,946.01
2019-04-25T03:22:48.528Z,946.02
2019-04-25T03:23:47.527Z,946.07
2019-04-25T03:24:47.546Z,946.02
2019-04-25T03:25:47.502Z,946.01
2019-04-25T03:26:47.485Z,946.00
2019-04-25T03:27:47.516Z,945.95
2019-04-25T03:28:47.462Z,946.00
2019-04-25T03:29:47.483Z,945.96
2019-04-25T03:30:48.513Z,946.01
2019-04-25T03:31:47.445Z,946.04
2019-04-25T03:32:51.253Z,946.07
2019-04-25T03:33:48.184Z,946.03
2019-04-25T03:34:47.403Z,946.05
2019-04-25T03:35:47.372Z,946.05
2019-04-25T03:36:47.409Z,945.97
2019-04-25T03:37:47.407Z,946.01
2019-04-25T03:38:47.351Z,946.06
2019-04-25T03:39:47.339Z,945.98
2019-04-25T03:40:47.362Z,946.04
2019-04-25T03:41:47.658Z,946.02
2019-04-25T03:42:47.297Z,946.03
2019-04-25T03:43:47.300Z,946.03
2019-04-25T03:44:47.298Z,946.06
2019-04-25T03:45:47.263Z,946.05
2019-04-25T03:46:47.253Z,946.06
2019-04-25T03:47:47.720Z,946.07
2019-04-25T03:48:48.168Z,946.12
2019-04-25T03:49:47.234Z,946.09
2019-04-25T03:50:47.238Z,946.14
2019-04-25T03:51:47.198Z,946.20
2019-04-25T03:52:47.163Z,946.18
2019-04-25T03:53:47.245Z,946.24
2019-04-25T03:54:47.145Z,946.26
2019-04-25T03:55:47.203Z,946.26
2019-04-25T03:56:53.493Z,946.26
2019-04-25T03:57:48.119Z,946.30
2019-04-25T03:58:47.116Z,946.29
2019-04-25T03:59:47.137Z,946.33
2019-04-25T04:00:47.087Z,946.29
2019-04-25T04:01:47.074Z,946.35
2019-04-25T04:02:47.075Z,946.32
2019-04-25T04:03:47.574Z,946.32
2019-04-25T04:04:47.119Z,946.34
2019-04-25T04:05:47.018Z,946.35
2019-04-25T04:06:47.036Z,946.38
2019-04-25T04:07:47.100Z,946.40
2019-04-25T04:08:46.996Z,946.38
2019-04-25T04:09:47.032Z,946.37
2019-04-25T04:10:46.978Z,946.28
2019-04-25T04:11:46.947Z,946.25
2019-04-25T04:12:47.001Z,946.25
2019-04-25T04:13:46.935Z,946.27
2019-04-25T04:14:46.926Z,946.26
2019-04-25T04:15:47.068Z,946.31
2019-04-25T04:16:46.918Z,946.28
2019-04-25T04:17:46.894Z,946.32
2019-04-25T04:18:46.920Z,946.34
2019-04-25T04:19:46.855Z,946.34
2019-04-25T04:20:47.889Z,946.38
2019-04-25T04:21:46.868Z,946.42
2019-04-25T04:23:07.893Z,946.49
2019-04-25T04:23:46.827Z,946.42
2019-04-25T04:24:46.812Z,946.44
2019-04-25T04:25:46.803Z,946.43
2019-04-25T04:26:47.196Z,946.41
2019-04-25T04:27:46.776Z,946.39
2019-04-25T04:28:46.776Z,946.44
2019-04-25T04:29:46.763Z,946.41
2019-04-25T04:30:46.739Z,946.46
2019-04-25T04:31:46.896Z,946.50
2019-04-25T04:33:59.206Z,946.54
2019-04-25T04:34:58.905Z,946.58
2019-04-25T04:35:59.307Z,946.60
2019-04-25T04:36:58.808Z,946.59
2019-04-25T04:38:38.302Z,946.61
2019-04-25T04:38:58.680Z,946.65
2019-04-25T04:39:58.671Z,946.61
2019-04-25T04:40:58.724Z,946.63
2019-04-25T04:41:58.677Z,946.68
2019-04-25T04:42:58.658Z,946.68
2019-04-25T04:43:58.614Z,946.72
2019-04-25T04:44:59.639Z,946.73
2019-04-25T04:45:59.580Z,946.77
2019-04-25T04:46:58.614Z,946.81
2019-04-25T04:47:58.627Z,946.81
2019-04-25T04:48:58.562Z,946.77
2019-04-25T04:50:05.198Z,946.75
2019-04-25T04:50:59.166Z,946.79
2019-04-25T04:51:58.532Z,946.75
2019-04-25T04:52:58.610Z,946.74
2019-04-25T04:53:58.504Z,946.67
2019-04-25T04:55:06.497Z,946.71
2019-04-25T04:55:59.503Z,946.66
2019-04-25T04:56:58.471Z,946.64
2019-04-25T04:58:01.292Z,946.67
2019-04-25T04:58:58.436Z,946.65
2019-04-25T04:59:58.421Z,946.72
2019-04-25T05:00:58.412Z,946.74
2019-04-25T05:01:58.469Z,946.80
2019-04-25T05:02:59.178Z,946.82
2019-04-25T05:03:58.443Z,946.84
2019-04-25T05:04:58.365Z,946.86
2019-04-25T05:05:59.172Z,946.88
2019-04-25T05:06:58.349Z,946.90
2019-04-25T05:07:58.419Z,946.91
2019-04-25T05:08:58.386Z,946.89
2019-04-25T05:09:58.343Z,946.90
2019-04-25T05:10:58.375Z,946.90
2019-04-25T05:11:58.313Z,946.86
2019-04-25T05:12:58.333Z,946.86
2019-04-25T05:13:59.329Z,946.87
2019-04-25T05:14:58.269Z,946.92
2019-04-25T05:15:58.307Z,946.90
2019-04-25T05:16:58.272Z,946.92
2019-04-25T05:17:58.247Z,946.93
2019-04-25T05:18:58.309Z,946.91
2019-04-25T05:19:58.203Z,946.94
2019-04-25T05:20:58.187Z,946.89
2019-04-25T05:21:58.199Z,946.93
2019-04-25T05:22:58.162Z,947.02
2019-04-25T05:23:58.195Z,947.04
2019-04-25T05:24:58.167Z,947.03
2019-04-25T05:25:58.177Z,947.03
2019-04-25T05:26:58.666Z,947.05
2019-04-25T05:28:02.983Z,947.03
2019-04-25T05:28:59.123Z,947.07
2019-04-25T05:29:58.097Z,947.07
2019-04-25T05:30:58.083Z,947.08
2019-04-25T05:31:59.152Z,947.09
2019-04-25T05:32:58.708Z,947.11
2019-04-25T05:33:58.058Z,947.13
2019-04-25T05:34:58.048Z,947.14
2019-04-25T05:35:58.661Z,947.14
2019-04-25T05:36:58.041Z,947.18
2019-04-25T05:37:58.185Z,947.19
2019-04-25T05:38:57.974Z,947.13
2019-04-25T05:39:57.968Z,947.13
2019-04-25T05:40:57.967Z,947.11
2019-04-25T05:41:58.992Z,947.11
2019-04-25T05:42:57.994Z,947.17
2019-04-25T05:43:57.955Z,947.13
2019-04-25T05:44:57.956Z,947.15
2019-04-25T05:45:57.927Z,947.19
2019-04-25T05:46:57.899Z,947.18
2019-04-25T05:47:58.290Z,947.18
2019-04-25T05:49:01.678Z,947.17
2019-04-25T05:49:57.863Z,947.18
2019-04-25T05:50:57.939Z,947.21
2019-04-25T05:51:57.835Z,947.25
2019-04-25T05:53:19.753Z,947.20
2019-04-25T05:53:58.211Z,947.23
2019-04-25T05:54:58.840Z,947.26
2019-04-25T05:55:57.803Z,947.32
2019-04-25T05:56:57.883Z,947.28
2019-04-25T05:57:58.770Z,947.36
2019-04-25T05:58:58.215Z,947.35
2019-04-25T05:59:57.778Z,947.37
2019-04-25T06:00:57.779Z,947.38
2019-04-25T06:01:57.726Z,947.38
2019-04-25T06:02:57.780Z,947.42
2019-04-25T06:03:57.743Z,947.43
2019-04-25T06:04:57.693Z,947.43
2019-04-25T06:05:57.690Z,947.42
2019-04-25T06:06:57.670Z,947.42
2019-04-25T06:07:57.674Z,947.37
2019-04-25T06:08:57.677Z,947.39
2019-04-25T06:09:58.166Z,947.38
2019-04-25T06:10:57.639Z,947.37
2019-04-25T06:11:57.633Z,947.38
2019-04-25T06:12:57.697Z,947.44
2019-04-25T06:14:00.220Z,947.41
2019-04-25T06:14:57.583Z,947.42
2019-04-25T06:15:57.697Z,947.42
2019-04-25T06:16:59.629Z,947.46
2019-04-25T06:17:57.567Z,947.48
2019-04-25T06:18:57.577Z,947.53
2019-04-25T06:19:57.537Z,947.52
2019-04-25T06:20:57.563Z,947.59
2019-04-25T06:21:57.521Z,947.79
2019-04-25T06:22:58.514Z,947.87
2019-04-25T06:23:57.617Z,947.97
2019-04-25T06:24:59.168Z,947.99
2019-04-25T06:25:58.535Z,948.01
2019-04-25T06:26:57.481Z,948.02
2019-04-25T06:27:59.235Z,948.03
2019-04-25T06:28:59.701Z,948.08
2019-04-25T06:30:00.637Z,947.99
2019-04-25T06:30:58.481Z,948.00
2019-04-25T06:32:05.680Z,948.02
2019-04-25T06:32:58.446Z,948.08
2019-04-25T06:33:57.379Z,948.07
2019-04-25T06:34:57.490Z,948.09
2019-04-25T06:35:58.384Z,948.10
2019-04-25T06:36:59.159Z,948.10
2019-04-25T06:37:57.388Z,948.09
2019-04-25T06:38:57.344Z,948.07
2019-04-25T06:39:57.322Z,947.95
2019-04-25T06:40:57.314Z,948.18
2019-04-25T06:41:57.351Z,948.16
2019-04-25T06:42:57.284Z,948.13
2019-04-25T06:43:58.475Z,948.20
2019-04-25T06:44:58.645Z,948.24
2019-04-25T06:45:58.478Z,948.17
2019-04-25T06:46:58.262Z,948.18
2019-04-25T06:47:58.256Z,948.19
2019-04-25T06:48:57.258Z,948.14
2019-04-25T06:49:58.187Z,948.11
2019-04-25T06:50:58.209Z,948.14
2019-04-25T06:51:57.189Z,948.08
2019-04-25T06:52:57.191Z,948.11
2019-04-25T06:53:57.676Z,948.12
2019-04-25T06:54:57.201Z,948.06
2019-04-25T06:55:57.178Z,947.99
2019-04-25T06:56:57.176Z,947.94
2019-04-25T06:58:09.241Z,947.96
2019-04-25T06:58:58.140Z,947.96
2019-04-25T06:59:57.102Z,947.98
2019-04-25T07:01:01.052Z,947.95
2019-04-25T07:01:57.075Z,947.96
2019-04-25T07:02:57.107Z,947.94
2019-04-25T07:03:57.032Z,947.89
2019-04-25T07:04:57.044Z,947.93
2019-04-25T07:05:58.672Z,947.96
2019-04-25T07:07:09.365Z,947.93
2019-04-25T07:08:03.367Z,947.91
2019-04-25T07:08:58.026Z,947.96
2019-04-25T07:09:57.771Z,947.98
2019-04-25T07:10:57.090Z,948.00
2019-04-25T07:11:56.978Z,948.02
2019-04-25T07:12:59.735Z,948.05
2019-04-25T07:13:58.032Z,948.08
2019-04-25T07:14:57.919Z,948.08
2019-04-25T07:15:57.914Z,948.05
2019-04-25T07:16:56.915Z,948.11
2019-04-25T07:17:57.905Z,948.13
2019-04-25T07:18:56.869Z,948.16
2019-04-25T07:19:56.892Z,948.15
2019-04-25T07:20:57.974Z,948.21
2019-04-25T07:21:56.894Z,948.19
2019-04-25T07:23:03.611Z,948.19
2019-04-25T07:23:56.853Z,948.22
2019-04-25T07:24:56.842Z,948.25
2019-04-25T07:25:56.789Z,948.24
2019-04-25T07:26:56.814Z,948.27
2019-04-25T07:27:56.793Z,948.26
2019-04-25T07:28:56.788Z,948.26
2019-04-25T07:29:57.222Z,948.31
2019-04-25T07:30:56.835Z,948.30
2019-04-25T07:31:56.763Z,948.32
2019-04-25T07:33:01.742Z,948.24
2019-04-25T07:33:57.756Z,948.28
2019-04-25T07:34:57.687Z,948.28
2019-04-25T07:35:57.175Z,948.22
2019-04-25T07:36:56.684Z,948.26
2019-04-25T07:38:11.195Z,948.26
2019-04-25T07:39:07.574Z,948.24
2019-04-25T07:39:57.642Z,948.24
2019-04-25T07:40:56.717Z,948.25
2019-04-25T07:41:57.611Z,948.23
2019-04-25T07:42:57.651Z,948.29
2019-04-25T07:43:56.685Z,948.30
2019-04-25T07:44:56.602Z,948.26
2019-04-25T07:45:56.810Z,948.31
2019-04-25T07:46:56.589Z,948.30
2019-04-25T07:47:56.692Z,948.28
2019-04-25T07:48:56.523Z,948.27
2019-04-25T07:49:56.542Z,948.30
2019-04-25T07:50:56.505Z,948.29
2019-04-25T07:51:57.196Z,948.30
2019-04-25T07:53:53.338Z,948.27
2019-04-25T07:54:48.511Z,948.31
2019-04-25T07:55:48.254Z,948.29
2019-04-25T07:57:10.243Z,948.28
2019-04-25T07:57:47.968Z,948.30
2019-04-25T07:58:52.164Z,948.32
2019-04-25T08:00:39.391Z,948.37
2019-04-25T08:01:39.076Z,948.37
2019-04-25T08:02:51.204Z,948.33
2019-04-25T08:03:38.269Z,948.35
2019-04-25T08:04:38.360Z,948.34
2019-04-25T08:05:39.322Z,948.34
2019-04-25T08:06:38.143Z,948.31
2019-04-25T08:07:39.018Z,948.28
2019-04-25T08:08:38.174Z,948.31
2019-04-25T08:09:38.066Z,948.30
2019-04-25T08:10:38.164Z,948.28
2019-04-25T08:11:38.276Z,948.25
2019-04-25T08:12:51.412Z,948.25
2019-04-25T08:13:39.850Z,948.24
2019-04-25T08:14:38.335Z,948.28
2019-04-25T08:15:38.359Z,948.26
2019-04-25T08:16:38.220Z,948.23
2019-04-25T08:17:39.612Z,948.27
2019-04-25T08:18:38.785Z,948.26
2019-04-25T08:19:37.886Z,948.25
2019-04-25T08:20:38.884Z,948.22
2019-04-25T08:21:38.414Z,948.23
2019-04-25T08:22:50.280Z,948.20
2019-04-25T08:23:38.941Z,948.23
2019-04-25T08:24:37.854Z,948.23
2019-04-25T08:25:39.369Z,948.22
2019-04-25T08:26:37.905Z,948.22
2019-04-25T08:27:37.807Z,948.22
2019-04-25T08:28:49.988Z,948.23
2019-04-25T08:29:39.759Z,948.20
2019-04-25T08:30:38.193Z,948.23
2019-04-25T08:31:37.793Z,948.20
2019-04-25T08:32:39.599Z,948.24
2019-04-25T08:33:37.746Z,948.23
2019-04-25T08:34:38.569Z,948.21
2019-04-25T08:35:38.186Z,948.26
2019-04-25T08:36:38.637Z,948.28
2019-04-25T08:37:40.382Z,948.28
2019-04-25T08:38:38.710Z,948.27
2019-04-25T08:39:39.722Z,948.29
2019-04-25T08:40:38.927Z,948.28
2019-04-25T08:41:38.636Z,948.29
2019-04-25T08:42:38.662Z,948.23
2019-04-25T08:43:39.433Z,948.26
2019-04-25T08:44:39.417Z,948.24
2019-04-25T08:45:38.478Z,948.23
2019-04-25T08:46:39.469Z,948.21
2019-04-25T08:47:53.668Z,948.19
2019-04-25T08:48:37.716Z,948.19
2019-04-25T08:49:38.158Z,948.20
2019-04-25T08:50:40.174Z,948.18
2019-04-25T08:51:37.891Z,948.27
2019-04-25T08:52:37.775Z,948.21
2019-04-25T08:53:37.508Z,948.22
2019-04-25T08:54:41.116Z,948.21
2019-04-25T08:55:38.291Z,948.25
2019-04-25T08:56:37.844Z,948.24
2019-04-25T08:57:37.944Z,948.22
2019-04-25T08:58:37.439Z,948.24
2019-04-25T08:59:42.399Z,948.19
2019-04-25T09:00:40.399Z,948.20
2019-04-25T09:01:49.266Z,948.14
2019-04-25T09:02:38.924Z,948.19
2019-04-25T09:03:38.002Z,948.20
2019-04-25T09:04:40.077Z,948.21
2019-04-25T09:05:38.967Z,948.23
2019-04-25T09:06:38.552Z,948.24
2019-04-25T09:07:39.045Z,948.21
2019-04-25T09:08:48.439Z,948.18
2019-04-25T09:09:41.121Z,948.18
2019-04-25T09:10:38.560Z,948.20
2019-04-25T09:11:40.022Z,948.19
2019-04-25T09:12:38.340Z,948.16
2019-04-25T09:13:38.632Z,948.18
2019-04-25T09:14:39.019Z,948.14
2019-04-25T09:15:45.514Z,948.16
2019-04-25T09:16:38.264Z,948.08
2019-04-25T09:17:38.036Z,948.08
2019-04-25T09:18:48.018Z,948.10
2019-04-25T09:19:38.385Z,948.07
2019-04-25T09:20:40.573Z,948.03
2019-04-25T09:21:37.823Z,948.01
2019-04-25T09:22:38.582Z,948.03
2019-04-25T09:23:37.920Z,948.02
2019-04-25T09:24:38.995Z,948.05
2019-04-25T09:25:37.215Z,948.00
2019-04-25T09:26:38.268Z,947.93
2019-04-25T09:27:39.713Z,947.96
2019-04-25T09:28:38.940Z,947.92
2019-04-25T09:29:47.365Z,947.92
2019-04-25T09:30:38.448Z,947.86
2019-04-25T09:31:47.153Z,947.90
2019-04-25T09:32:37.366Z,947.91
2019-04-25T09:33:37.414Z,947.91
2019-04-25T09:34:38.063Z,947.87
2019-04-25T09:35:38.119Z,947.87
2019-04-25T09:36:50.732Z,947.86
2019-04-25T09:37:38.789Z,947.80
2019-04-25T09:38:37.030Z,947.77
2019-04-25T09:39:55.812Z,947.76
2019-04-25T09:41:55.254Z,947.65
2019-04-25T09:42:55.413Z,947.63
2019-04-25T09:43:55.049Z,947.63
2019-04-25T09:44:56.374Z,947.66
2019-04-25T09:45:54.870Z,947.61
2019-04-25T09:46:54.866Z,947.60
2019-04-25T09:49:10.401Z,947.58
2019-04-25T09:51:23.596Z,947.59
2019-04-25T09:52:22.335Z,947.49
2019-04-25T09:53:50.085Z,947.54
2019-04-25T09:54:23.750Z,947.52
2019-04-25T09:55:21.077Z,947.55
2019-04-25T09:56:23.968Z,947.48
2019-04-25T09:57:23.875Z,947.50
2019-04-25T09:58:23.735Z,947.44
2019-04-25T09:59:29.242Z,947.45
2019-04-25T10:00:23.269Z,947.47
2019-04-25T10:01:21.886Z,947.46
2019-04-25T10:02:20.883Z,947.41
2019-04-25T10:03:23.785Z,947.45
2019-04-25T10:04:23.003Z,947.43
2019-04-25T10:05:21.051Z,947.40
2019-04-25T10:06:20.834Z,947.46
2019-04-25T10:07:20.900Z,947.46
2019-04-25T10:08:20.873Z,947.41
2019-04-25T10:09:20.810Z,947.41
2019-04-25T10:10:21.769Z,947.46
2019-04-25T10:11:21.782Z,947.44
2019-04-25T10:12:20.820Z,947.43
2019-04-25T10:13:20.794Z,947.44
2019-04-25T10:14:20.872Z,947.44
2019-04-25T10:15:20.763Z,947.44
2019-04-25T10:16:21.270Z,947.41
2019-04-25T10:17:24.289Z,947.42
2019-04-25T10:18:20.764Z,947.43
2019-04-25T10:19:23.466Z,947.41
2019-04-25T10:20:35.539Z,947.38
2019-04-25T10:21:24.376Z,947.44
2019-04-25T10:23:43.803Z,947.40
2019-04-25T10:24:42.733Z,947.39
2019-04-25T10:25:44.133Z,947.42
2019-04-25T10:26:44.104Z,947.38
2019-04-25T10:27:41.105Z,947.34
2019-04-25T10:28:43.786Z,947.32
2019-04-25T10:29:48.330Z,947.32
2019-04-25T10:30:42.967Z,947.27
2019-04-25T10:31:44.069Z,947.27
2019-04-25T10:32:41.157Z,947.28
2019-04-25T10:33:45.292Z,947.28
2019-04-25T10:34:41.185Z,947.31
2019-04-25T10:35:52.027Z,947.29
2019-04-25T10:36:42.638Z,947.28
2019-04-25T10:37:41.063Z,947.35
2019-04-25T10:40:13.403Z,947.30
2019-04-25T10:40:53.601Z,947.34
2019-04-25T10:41:51.275Z,947.33
2019-04-25T10:42:53.350Z,947.35
2019-04-25T10:43:51.237Z,947.33
2019-04-25T10:44:53.994Z,947.31
2019-04-25T10:45:53.373Z,947.36
2019-04-25T10:46:51.230Z,947.31
2019-04-25T10:47:54.647Z,947.32
2019-04-25T10:48:54.065Z,947.31
2019-04-25T10:49:53.305Z,947.34
2019-04-25T10:50:53.518Z,947.32
2019-04-25T10:51:52.423Z,947.32
2019-04-25T10:52:51.142Z,947.32
2019-04-25T10:53:56.018Z,947.35
2019-04-25T10:54:51.042Z,947.34
2019-04-25T10:55:51.749Z,947.33
2019-04-25T10:56:52.257Z,947.35
2019-04-25T10:57:51.127Z,947.38
2019-04-25T10:58:54.553Z,947.34
2019-04-25T11:00:56.980Z,947.31
2019-04-25T11:01:56.037Z,947.35
2019-04-25T11:02:59.023Z,947.32
2019-04-25T11:03:56.159Z,947.39
2019-04-25T11:04:55.912Z,947.43
2019-04-25T11:05:56.048Z,947.38
2019-04-25T11:06:57.283Z,947.41
2019-04-25T11:07:56.018Z,947.37
2019-04-25T11:10:09.384Z,947.34
2019-04-25T11:11:08.225Z,947.33
2019-04-25T11:12:08.900Z,947.31
2019-04-25T11:13:11.743Z,947.34
2019-04-25T11:14:08.220Z,947.38
2019-04-25T11:15:09.080Z,947.36
2019-04-25T11:16:08.093Z,947.38
2019-04-25T11:17:08.176Z,947.35
2019-04-25T11:18:08.307Z,947.39
2019-04-25T11:19:09.329Z,947.39
2019-04-25T11:20:19.589Z,947.37
2019-04-25T11:21:09.109Z,947.37
2019-04-25T11:22:08.735Z,947.37
2019-04-25T11:23:08.843Z,947.37
2019-04-25T11:24:08.083Z,947.37
2019-04-25T11:25:08.030Z,947.37
2019-04-25T11:26:07.962Z,947.34
2019-04-25T11:27:08.110Z,947.30
2019-04-25T11:28:08.789Z,947.31
2019-04-25T11:29:07.979Z,947.36
2019-04-25T11:30:10.787Z,947.35
2019-04-25T11:31:08.034Z,947.30
2019-04-25T11:32:07.948Z,947.28
2019-04-25T11:33:08.118Z,947.32
2019-04-25T11:34:07.917Z,947.48
2019-04-25T11:35:09.846Z,947.36
2019-04-25T11:36:07.857Z,947.37
2019-04-25T11:37:07.979Z,947.36
2019-04-25T11:38:08.174Z,947.35
2019-04-25T11:39:07.835Z,947.36
2019-04-25T11:40:07.855Z,947.36
2019-04-25T11:41:07.803Z,947.37
2019-04-25T11:42:07.827Z,947.33
2019-04-25T11:43:07.772Z,947.30
2019-04-25T11:44:07.777Z,947.48
2019-04-25T11:45:07.757Z,947.40
2019-04-25T11:46:07.891Z,947.33
2019-04-25T11:47:08.724Z,947.30
2019-04-25T11:48:07.780Z,947.32
2019-04-25T11:49:07.713Z,947.32
2019-04-25T11:50:07.698Z,947.33
2019-04-25T11:51:10.299Z,947.24
2019-04-25T11:52:07.794Z,947.28
2019-04-25T11:53:07.807Z,947.29
2019-04-25T11:54:07.705Z,947.19
2019-04-25T11:55:08.278Z,947.18
2019-04-25T11:56:07.720Z,947.12
2019-04-25T11:57:07.672Z,947.17
2019-04-25T11:58:07.622Z,947.14
2019-04-25T11:59:08.591Z,947.10
2019-04-25T12:00:07.575Z,947.09
2019-04-25T12:01:07.610Z,947.04
2019-04-25T12:02:07.575Z,947.06
2019-04-25T12:03:17.769Z,947.00
2019-04-25T12:04:07.680Z,947.02
2019-04-25T12:05:07.613Z,946.99
2019-04-25T12:06:07.606Z,946.99
2019-04-25T12:07:08.604Z,947.04
2019-04-25T12:08:07.560Z,947.03
2019-04-25T12:09:07.474Z,947.03
2019-04-25T12:10:07.468Z,946.92
2019-04-25T12:11:07.515Z,946.95
2019-04-25T12:12:07.452Z,946.93
2019-04-25T12:13:07.435Z,946.90
2019-04-25T12:14:07.468Z,946.90
2019-04-25T12:15:07.416Z,946.89
2019-04-25T12:16:07.421Z,946.93
2019-04-25T12:17:07.471Z,946.85
2019-04-25T12:18:07.378Z,946.79
2019-04-25T12:19:07.386Z,946.87
2019-04-25T12:20:07.397Z,946.82
2019-04-25T12:21:07.357Z,946.81
2019-04-25T12:22:07.349Z,946.82
2019-04-25T12:23:10.373Z,946.83
2019-04-25T12:24:07.402Z,946.79
2019-04-25T12:25:07.309Z,946.88
2019-04-25T12:26:07.322Z,946.76
2019-04-25T12:27:07.308Z,946.71
2019-04-25T12:28:07.284Z,946.77
2019-04-25T12:29:07.284Z,946.73
2019-04-25T12:30:07.337Z,946.68
2019-04-25T12:31:07.237Z,946.70
2019-04-25T12:32:07.238Z,946.73
2019-04-25T12:33:18.445Z,946.74
2019-04-25T12:34:08.206Z,946.76
2019-04-25T12:35:07.224Z,946.76
2019-04-25T12:36:07.200Z,946.75
2019-04-25T12:37:07.174Z,946.79
2019-04-25T12:38:07.200Z,946.77
2019-04-25T12:39:07.237Z,946.84
2019-04-25T12:40:07.164Z,946.73
2019-04-25T12:41:07.179Z,946.79